createdAt,value
2023-01-23T00:02:36.543Z,23.7
2023-01-23T00:07:59.559Z,25.3
2023-01-23T00:13:23.176Z,27
2023-01-23T00:18:46.229Z,23.8
2023-01-23T00:24:12.400Z,23.8
2023-01-23T00:29:34.917Z,24.6
2023-01-23T00:34:58.719Z,26.5
2023-01-23T00:40:06.311Z,24.3
2023-01-23T00:45:34.780Z,23.8
2023-01-23T00:50:42.757Z,23.8
2023-01-23T00:56:05.309Z,25.1
2023-01-23T01:01:28.438Z,27.3
2023-01-23T01:06:52.555Z,24
2023-01-23T01:11:29.712Z,23.9
2023-01-23T01:16:51.459Z,23.8
2023-01-23T01:22:15.320Z,25.6
2023-01-23T01:27:37.936Z,25.8
2023-01-23T01:33:01.932Z,23.9
2023-01-23T01:38:25.219Z,23.8
2023-01-23T01:43:47.998Z,24.6
2023-01-23T01:49:11.088Z,26.5
2023-01-23T01:54:34.446Z,24.4
2023-01-23T01:59:25.582Z,23.9
2023-01-23T02:04:33.052Z,23.8
2023-01-23T02:09:41.096Z,24.7
2023-01-23T02:15:04.301Z,26.8
2023-01-23T02:20:27.328Z,24.3
2023-01-23T02:25:37.482Z,23.9
2023-01-23T02:31:00.553Z,23.9
2023-01-23T02:36:24.040Z,25.1
2023-01-23T02:41:47.592Z,27.3
2023-01-23T02:46:55.721Z,24.1
2023-01-23T02:52:19.138Z,23.9
2023-01-23T02:57:41.910Z,23.8
2023-01-23T03:03:05.338Z,25.4
2023-01-23T03:08:28.643Z,26.4
2023-01-23T03:13:51.319Z,24
2023-01-23T03:19:12.135Z,23.9
2023-01-23T03:24:20.036Z,24
2023-01-23T03:29:27.826Z,25.9
2023-01-23T03:34:51.287Z,25.2
2023-01-23T03:40:14.352Z,24
2023-01-23T03:45:06.508Z,23.9
2023-01-23T03:50:13.890Z,24.3
2023-01-23T03:55:05.532Z,26.1
2023-01-23T04:00:13.764Z,25.1
2023-01-23T04:05:21.901Z,24
2023-01-23T04:10:35.516Z,23.9
2023-01-23T04:15:28.103Z,23.8
2023-01-23T04:20:50.972Z,25.8
2023-01-23T04:26:12.881Z,25.4
2023-01-23T04:31:37.219Z,24
2023-01-23T04:37:00.839Z,23.9
2023-01-23T04:42:22.636Z,24.4
2023-01-23T04:47:48.342Z,26.3
2023-01-23T04:52:55.853Z,24.6
2023-01-23T04:58:02.479Z,24
2023-01-23T05:03:27.289Z,23.9
2023-01-23T05:08:52.408Z,24.6
2023-01-23T05:14:15.443Z,26.5
2023-01-23T05:19:24.209Z,24.5
2023-01-23T05:24:32.290Z,24
2023-01-23T05:29:38.422Z,23.9
2023-01-23T05:34:46.900Z,24.7
2023-01-23T05:40:13.228Z,26.5
2023-01-23T05:45:37.197Z,24.4
2023-01-23T05:50:29.908Z,24
2023-01-23T05:55:53.960Z,23.9
2023-01-23T06:01:03.361Z,24.8
2023-01-23T06:05:56.053Z,26.8
2023-01-23T06:11:19.548Z,24.4
2023-01-23T06:16:29.162Z,24
2023-01-23T06:21:37.739Z,23.9
2023-01-23T06:27:01.502Z,24.6
2023-01-23T06:32:24.776Z,26.6
2023-01-23T06:37:51.836Z,24.4
2023-01-23T06:43:02.147Z,24
2023-01-23T06:48:25.488Z,23.9
2023-01-23T06:53:49.189Z,24.8
2023-01-23T06:59:12.601Z,26.9
2023-01-23T07:04:35.606Z,24.3
2023-01-23T07:09:58.925Z,24
2023-01-23T07:15:22.766Z,23.8
2023-01-23T07:20:47.424Z,25.2
2023-01-23T07:25:55.057Z,27.3
2023-01-23T07:31:19.045Z,24.1
2023-01-23T07:36:43.207Z,24
2023-01-23T07:42:07.040Z,23.8
2023-01-23T07:47:30.621Z,25.4
2023-01-23T07:52:56.150Z,26.8
2023-01-23T07:58:20.112Z,24.1
2023-01-23T08:03:48.532Z,24
2023-01-23T08:09:04.927Z,23.8
2023-01-23T08:14:28.361Z,25.8
2023-01-23T08:19:36.804Z,25.7
2023-01-23T08:24:58.842Z,24.1
2023-01-23T08:30:06.737Z,24
2023-01-23T08:35:15.304Z,23.8
2023-01-23T08:40:38.921Z,25.8
2023-01-23T08:46:02.759Z,25.6
2023-01-23T08:51:27.355Z,24
2023-01-23T08:56:51.893Z,23.9
2023-01-23T09:02:15.784Z,24.1
2023-01-23T09:07:23.856Z,26.2
2023-01-23T09:12:31.831Z,25
2023-01-23T09:17:56.015Z,24
2023-01-23T09:23:19.988Z,23.9
2023-01-23T09:28:43.057Z,24.3
2023-01-23T09:34:07.524Z,26.3
2023-01-23T09:39:46.694Z,24.7
2023-01-23T09:44:56.495Z,24
2023-01-23T09:50:20.865Z,23.9
2023-01-23T09:55:28.804Z,24.8
2023-01-23T10:00:51.129Z,26.7
2023-01-23T10:06:16.130Z,24.4
2023-01-23T10:11:42.660Z,24
2023-01-23T10:17:24.580Z,23.9
2023-01-23T10:22:58.279Z,25
2023-01-23T10:28:24.082Z,27.3
2023-01-23T10:33:46.795Z,24.1
2023-01-23T10:39:25.761Z,24
2023-01-23T10:44:51.577Z,23.8
2023-01-23T10:50:31.561Z,25.6
2023-01-23T10:56:14.410Z,25.6
2023-01-23T11:01:42.321Z,23.9
2023-01-23T11:07:02.196Z,23.9
2023-01-23T11:12:25.565Z,23.7
2023-01-23T11:17:51.575Z,25.9
2023-01-23T11:23:14.289Z,25.3
2023-01-23T11:28:51.554Z,23.9
2023-01-23T11:34:18.920Z,23.8
2023-01-23T11:39:48.667Z,24.1
2023-01-23T11:45:21.742Z,26.2
2023-01-23T11:50:54.781Z,24.8
2023-01-23T11:56:13.925Z,23.9
2023-01-23T12:01:28.861Z,23.8
2023-01-23T12:07:28.309Z,24.4
2023-01-23T12:12:50.569Z,26.5
2023-01-23T12:18:15.102Z,24.6
2023-01-23T12:23:22.749Z,23.9
2023-01-23T12:28:47.413Z,23.8
2023-01-23T12:34:11.692Z,24.4
2023-01-23T12:40:02.814Z,26.4
2023-01-23T12:45:26.187Z,24.4
2023-01-23T12:50:50.988Z,24
2023-01-23T12:56:15.777Z,23.9
2023-01-23T13:02:04.151Z,24.7
2023-01-23T13:07:42.207Z,26.9
2023-01-23T13:13:25.195Z,24.3
2023-01-23T13:19:19.427Z,23.9
2023-01-23T13:24:48.721Z,23.8
2023-01-23T13:30:26.451Z,25.3
2023-01-23T13:35:57.973Z,27
2023-01-23T13:41:32.290Z,24.1
2023-01-23T13:47:05.156Z,24
2023-01-23T13:52:12.924Z,23.8
2023-01-23T13:57:36.902Z,25.6
2023-01-23T14:02:59.778Z,26.1
2023-01-23T14:08:22.345Z,24.1
2023-01-23T14:13:46.748Z,23.9
2023-01-23T14:19:10.574Z,23.8
2023-01-23T14:24:46.502Z,25.5
2023-01-23T14:30:27.371Z,26
2023-01-23T14:36:00.937Z,24.1
2023-01-23T14:41:38.215Z,24
2023-01-23T14:47:16.360Z,23.8
2023-01-23T14:52:54.875Z,25.8
2023-01-23T14:58:37.830Z,25.6
2023-01-23T15:04:12.599Z,24
2023-01-23T15:09:36.780Z,23.9
2023-01-23T15:14:59.710Z,23.7
2023-01-23T15:20:24.051Z,25.2
2023-01-23T15:25:57.441Z,27.3
2023-01-23T15:31:23.528Z,24.2
2023-01-23T15:36:49.214Z,24.1
2023-01-23T15:42:25.595Z,23.9
2023-01-23T15:47:50.509Z,23.6
2023-01-23T15:53:21.855Z,23.1
2023-01-23T15:58:58.884Z,22.7
2023-01-23T16:04:38.640Z,22.3
2023-01-23T16:10:10.587Z,21.9
2023-01-23T16:15:34.333Z,21.6
2023-01-23T16:20:54.570Z,21.3
2023-01-23T16:27:08.701Z,21
2023-01-23T16:32:34.238Z,20.8
2023-01-23T16:37:57.430Z,20.5
2023-01-23T16:43:21.895Z,20.4
2023-01-23T16:48:52.975Z,20.4
2023-01-23T16:54:37.073Z,20.4
2023-01-23T17:00:02.667Z,20.4
2023-01-23T17:05:41.855Z,20.3
2023-01-23T17:11:04.020Z,20.3
2023-01-23T17:15:56.512Z,20.2
2023-01-23T17:21:03.138Z,20.1
2023-01-23T17:26:36.058Z,20.1
2023-01-23T17:32:13.434Z,19.9
2023-01-23T17:37:43.640Z,19.8
2023-01-23T17:43:06.896Z,19.6
2023-01-23T17:48:32.581Z,19.5
2023-01-23T17:53:42.252Z,19.3
2023-01-23T17:59:06.364Z,19.2
2023-01-23T18:04:32.390Z,19.1
2023-01-23T18:09:52.614Z,18.9
2023-01-23T18:15:19.505Z,18.8
2023-01-23T18:46:39.044Z,18.8
2023-01-23T18:52:46.180Z,18.9
2023-01-23T18:58:20.125Z,19.1
2023-01-23T19:04:15.584Z,19.4
2023-01-23T19:09:55.375Z,19.8
2023-01-23T19:15:24.314Z,20.1
2023-01-23T19:21:21.382Z,20.2
2023-01-23T19:27:00.991Z,20.3
2023-01-23T19:33:02.664Z,20.3
2023-01-23T19:38:27.360Z,20.3
2023-01-23T19:44:27.766Z,20.2
2023-01-23T19:50:06.516Z,20.1
2023-01-23T19:55:30.022Z,20.1
2023-01-23T20:00:36.864Z,20.2
2023-01-23T20:05:53.470Z,20.4
2023-01-23T20:11:05.567Z,20.6
2023-01-23T20:16:36.489Z,20.8
2023-01-23T20:22:07.674Z,21.1
2023-01-23T20:27:36.444Z,21.2
2023-01-23T20:32:52.471Z,21.3
2023-01-23T20:38:19.618Z,21.4
2023-01-23T20:43:44.155Z,21.4
2023-01-23T20:49:10.345Z,21.3
2023-01-23T20:54:35.124Z,21.2
2023-01-23T21:00:02.913Z,21.1
2023-01-23T21:05:14.682Z,20.9
2023-01-23T21:09:52.492Z,20.7
2023-01-23T21:15:00.442Z,20.5
2023-01-23T21:20:25.283Z,20.3
2023-01-23T21:25:50.516Z,20.1
2023-01-23T21:31:12.915Z,19.9
2023-01-23T21:36:36.126Z,19.8
2023-01-23T21:41:45.029Z,19.6
2023-01-23T21:47:07.433Z,19.4
2023-01-23T21:52:14.619Z,19.3
2023-01-23T21:57:23.259Z,19.1
2023-01-23T22:02:45.784Z,18.9
2023-01-23T22:08:09.907Z,18.8
2023-01-23T22:13:35.667Z,27.9
2023-01-23T22:19:18.060Z,28.6
2023-01-23T22:24:41.733Z,28.2
2023-01-23T22:30:05.871Z,28
2023-01-23T22:35:39.475Z,27.2
2023-01-23T22:41:02.424Z,26.5
2023-01-23T22:46:26.675Z,26
2023-01-23T22:51:49.715Z,25.4
2023-01-23T22:57:15.736Z,25.4
2023-01-23T23:02:24.473Z,24.9
2023-01-23T23:07:47.667Z,25
2023-01-23T23:12:39.657Z,24.5
2023-01-23T23:17:31.919Z,24.7
2023-01-23T23:22:39.285Z,24.3
2023-01-23T23:27:47.285Z,24.4
2023-01-23T23:32:55.550Z,24
2023-01-23T23:38:18.849Z,24.2
2023-01-23T23:43:41.876Z,23.8
2023-01-23T23:49:05.746Z,23.9
2023-01-23T23:54:28.438Z,23.5
2023-01-23T23:59:36.173Z,25.2
